createdAt,value
2023-01-17T00:01:54.312Z,1.00
2023-01-17T00:05:56.434Z,1.10
2023-01-17T00:09:59.640Z,1.33
2023-01-17T00:14:01.780Z,1.30
2023-01-17T00:18:03.931Z,0.83
2023-01-17T00:22:12.820Z,0.70
2023-01-17T00:26:19.321Z,1.10
2023-01-17T00:30:23.891Z,0.70
2023-01-17T00:34:26.086Z,0.90
2023-01-17T00:38:29.555Z,1.00
2023-01-17T00:42:31.714Z,0.80
2023-01-17T00:46:33.941Z,1.67
2023-01-17T00:50:37.131Z,0.90
2023-01-17T00:54:39.307Z,0.90
2023-01-17T00:58:41.498Z,0.90
2023-01-17T01:02:43.700Z,1.03
2023-01-17T01:06:46.016Z,1.23
2023-01-17T01:10:49.204Z,0.70
2023-01-17T01:14:51.484Z,1.00
2023-01-17T01:18:53.648Z,0.80
2023-01-17T01:22:55.862Z,0.90
2023-01-17T01:26:58.019Z,0.77
2023-01-17T01:31:03.715Z,0.90
2023-01-17T01:35:05.985Z,1.00
2023-01-17T01:39:08.241Z,0.90
2023-01-17T01:43:11.594Z,0.87
2023-01-17T01:47:35.044Z,1.10
2023-01-17T01:51:42.061Z,1.07
2023-01-17T01:55:47.812Z,0.80
2023-01-17T01:59:54.547Z,0.93
2023-01-17T02:03:57.017Z,1.00
2023-01-17T02:08:03.918Z,0.90
2023-01-17T02:12:06.597Z,0.90
2023-01-17T02:16:15.086Z,1.00
2023-01-17T02:20:29.506Z,0.90
2023-01-17T02:24:47.521Z,1.10
2023-01-17T02:28:49.687Z,1.00
2023-01-17T02:33:10.298Z,1.03
2023-01-17T02:37:18.989Z,0.90
2023-01-17T02:41:28.406Z,0.90
2023-01-17T02:45:30.664Z,0.90
2023-01-17T02:49:33.141Z,1.40
2023-01-17T02:53:38.137Z,0.90
2023-01-17T02:57:48.949Z,1.60
2023-01-17T03:01:51.240Z,1.20
2023-01-17T03:06:00.986Z,1.37
2023-01-17T03:10:04.202Z,1.10
2023-01-17T03:14:06.644Z,1.17
2023-01-17T03:18:11.430Z,1.40
2023-01-17T03:22:13.612Z,0.97
2023-01-17T03:26:15.886Z,1.13
2023-01-17T03:30:18.164Z,1.27
2023-01-17T03:34:20.324Z,1.13
2023-01-17T03:38:22.469Z,1.00
2023-01-17T03:42:24.688Z,0.90
2023-01-17T03:46:27.823Z,1.30
2023-01-17T03:50:29.944Z,1.10
2023-01-17T03:54:32.134Z,1.17
2023-01-17T03:58:34.322Z,1.10
2023-01-17T04:02:36.577Z,1.17
2023-01-17T04:06:38.812Z,1.00
2023-01-17T04:10:40.917Z,1.30
2023-01-17T04:14:43.069Z,0.90
2023-01-17T04:18:45.217Z,1.43
2023-01-17T04:22:47.379Z,1.40
2023-01-17T04:26:49.501Z,1.33
2023-01-17T04:30:51.856Z,1.13
2023-01-17T04:34:54.043Z,0.93
2023-01-17T04:38:56.168Z,0.77
2023-01-17T04:42:58.642Z,0.70
2023-01-17T04:47:00.730Z,1.27
2023-01-17T04:51:03.721Z,0.70
2023-01-17T04:55:06.316Z,0.80
2023-01-17T04:59:08.431Z,0.63
2023-01-17T05:03:10.606Z,0.43
2023-01-17T05:07:12.768Z,0.50
2023-01-17T05:11:14.960Z,0.50
2023-01-17T05:15:17.188Z,0.30
2023-01-17T05:19:20.946Z,0.47
2023-01-17T05:23:23.179Z,0.60
2023-01-17T05:27:25.372Z,0.50
2023-01-17T05:31:27.495Z,0.43
2023-01-17T05:35:30.955Z,0.57
2023-01-17T05:39:33.051Z,0.60
2023-01-17T05:43:35.325Z,0.90
2023-01-17T05:47:37.677Z,0.40
2023-01-17T05:51:39.862Z,0.27
2023-01-17T05:55:42.562Z,0.50
2023-01-17T05:59:44.729Z,0.50
2023-01-17T06:03:46.886Z,0.50
2023-01-17T06:07:49.311Z,0.73
2023-01-17T06:11:52.703Z,0.57
2023-01-17T06:15:54.869Z,0.53
2023-01-17T06:19:57.066Z,0.67
2023-01-17T06:23:59.174Z,0.80
2023-01-17T06:28:02.191Z,0.60
2023-01-17T06:32:04.493Z,0.67
2023-01-17T06:36:06.763Z,0.47
2023-01-17T06:40:09.330Z,0.57
2023-01-17T06:44:11.489Z,0.70
2023-01-17T06:48:13.656Z,0.70
2023-01-17T06:52:15.762Z,0.77
2023-01-17T06:56:17.914Z,1.07
2023-01-17T07:00:20.209Z,1.03
2023-01-17T07:04:22.344Z,0.60
2023-01-17T07:08:24.555Z,0.80
2023-01-17T07:12:26.737Z,0.77
2023-01-17T07:16:28.925Z,0.57
2023-01-17T07:20:31.135Z,0.70
2023-01-17T07:24:33.265Z,1.07
2023-01-17T07:28:35.453Z,0.70
2023-01-17T07:32:37.588Z,0.83
2023-01-17T07:36:39.716Z,1.27
2023-01-17T07:40:42.483Z,0.87
2023-01-17T07:44:44.738Z,0.70
2023-01-17T07:48:46.843Z,0.60
2023-01-17T07:52:51.845Z,0.80
2023-01-17T07:56:53.947Z,0.63
2023-01-17T08:01:01.493Z,0.73
2023-01-17T08:05:03.767Z,0.40
2023-01-17T08:09:05.987Z,0.40
2023-01-17T08:13:08.194Z,0.70
2023-01-17T08:17:12.785Z,0.93
2023-01-17T08:21:15.606Z,0.53
2023-01-17T08:25:17.884Z,0.77
2023-01-17T08:29:20.069Z,0.60
2023-01-17T08:33:22.215Z,0.60
2023-01-17T08:37:24.591Z,0.60
2023-01-17T08:41:26.848Z,0.50
2023-01-17T08:45:29.022Z,0.53
2023-01-17T08:49:31.256Z,0.60
2023-01-17T08:53:33.663Z,0.67
2023-01-17T08:57:35.762Z,0.33
2023-01-17T09:01:37.972Z,0.53
2023-01-17T09:05:40.262Z,0.17
2023-01-17T09:09:42.503Z,0.30
2023-01-17T09:13:44.737Z,0.70
2023-01-17T09:17:47.622Z,0.70
2023-01-17T09:21:49.740Z,0.53
2023-01-17T09:25:54.983Z,0.50
2023-01-17T09:29:57.117Z,0.90
2023-01-17T09:33:59.250Z,0.80
2023-01-17T09:38:01.380Z,0.43
2023-01-17T09:42:03.569Z,0.60
2023-01-17T09:46:07.161Z,0.20
2023-01-17T09:50:09.349Z,0.50
2023-01-17T09:54:21.310Z,0.20
2023-01-17T09:58:29.322Z,0.50
2023-01-17T10:02:31.643Z,0.50
2023-01-17T10:06:46.725Z,0.60
2023-01-17T10:10:56.538Z,0.30
2023-01-17T10:15:19.051Z,0.33
2023-01-17T10:19:21.153Z,0.53
2023-01-17T10:23:43.950Z,0.60
2023-01-17T10:27:51.844Z,0.50
2023-01-17T10:32:00.654Z,0.20
2023-01-17T10:36:06.405Z,0.40
2023-01-17T10:40:17.788Z,0.50
2023-01-17T10:44:29.682Z,0.37
2023-01-17T10:48:37.230Z,0.50
2023-01-17T10:52:39.468Z,0.53
2023-01-17T10:56:41.798Z,0.60
2023-01-17T11:00:44.225Z,0.50
2023-01-17T11:04:48.172Z,0.20
2023-01-17T11:08:51.903Z,0.50
2023-01-17T11:12:54.286Z,0.20
2023-01-17T11:17:03.223Z,0.40
2023-01-17T11:21:25.093Z,0.50
2023-01-17T11:25:28.008Z,0.30
2023-01-17T11:29:36.102Z,0.50
2023-01-17T11:33:42.135Z,0.47
2023-01-17T11:38:04.598Z,0.33
2023-01-17T11:42:26.904Z,0.40
2023-01-17T11:46:29.350Z,0.43
2023-01-17T11:50:31.554Z,0.30
2023-01-17T11:54:34.782Z,0.30
2023-01-17T11:58:38.333Z,0.40
2023-01-17T12:02:40.534Z,0.40
2023-01-17T12:06:56.780Z,0.40
2023-01-17T12:11:11.849Z,0.37
2023-01-17T12:15:20.183Z,0.70
2023-01-17T12:19:25.183Z,0.80
2023-01-17T12:23:33.284Z,0.77
2023-01-17T12:27:43.633Z,0.40
2023-01-17T12:31:46.018Z,0.50
2023-01-17T12:35:50.567Z,0.87
2023-01-17T12:39:57.735Z,0.70
2023-01-17T12:44:01.349Z,0.63
2023-01-17T12:48:06.490Z,0.50
2023-01-17T12:52:15.301Z,0.50
2023-01-17T12:56:20.259Z,0.50
2023-01-17T13:00:23.462Z,0.97
2023-01-17T13:04:58.827Z,0.50
2023-01-17T13:09:03.023Z,0.57
2023-01-17T13:13:12.369Z,0.40
2023-01-17T13:17:17.593Z,0.30
2023-01-17T13:21:37.977Z,0.87
2023-01-17T13:25:44.942Z,0.40
2023-01-17T13:30:16.517Z,0.53
2023-01-17T13:34:21.812Z,0.60
2023-01-17T13:38:29.673Z,0.60
2023-01-17T13:42:37.872Z,0.70
2023-01-17T13:47:06.190Z,1.03
2023-01-17T13:51:08.319Z,0.50
2023-01-17T13:55:28.470Z,0.40
2023-01-17T13:59:30.692Z,0.73
2023-01-17T14:03:53.108Z,0.60
2023-01-17T14:07:55.322Z,0.50
2023-01-17T14:12:05.165Z,3.00
2023-01-17T14:16:36.508Z,0.93
2023-01-17T14:20:47.076Z,0.73
2023-01-17T14:25:08.144Z,0.70
2023-01-17T14:29:28.851Z,0.50
2023-01-17T14:33:34.760Z,0.87
2023-01-17T14:37:43.773Z,0.57
2023-01-17T14:41:46.215Z,0.60
2023-01-17T14:45:48.570Z,0.20
2023-01-17T14:50:09.247Z,0.43
2023-01-17T14:54:17.931Z,0.70
2023-01-17T14:58:21.383Z,0.70
2023-01-17T15:02:23.765Z,0.77
2023-01-17T15:06:30.180Z,0.77
2023-01-17T15:10:33.360Z,0.83
2023-01-17T15:14:37.675Z,0.90
2023-01-17T15:18:42.539Z,0.67
2023-01-17T15:22:45.194Z,0.83
2023-01-17T15:26:47.728Z,1.10
2023-01-17T15:31:08.426Z,0.87
2023-01-17T15:35:17.278Z,0.70
2023-01-17T15:39:19.367Z,0.83
2023-01-17T15:43:24.772Z,0.80
2023-01-17T15:47:28.133Z,1.20
2023-01-17T15:51:31.440Z,1.20
2023-01-17T15:55:34.918Z,0.90
2023-01-17T15:59:42.813Z,0.97
2023-01-17T16:03:54.855Z,0.90
2023-01-17T16:07:58.388Z,0.93
2023-01-17T16:12:00.549Z,1.10
2023-01-17T16:16:12.882Z,1.33
2023-01-17T16:20:22.311Z,1.23
2023-01-17T16:24:24.469Z,1.70
2023-01-17T16:28:26.631Z,1.53
2023-01-17T16:32:28.797Z,1.30
2023-01-17T16:36:30.924Z,1.33
2023-01-17T16:40:34.756Z,1.30
2023-01-17T16:44:37.589Z,1.47
2023-01-17T16:48:39.754Z,1.37
2023-01-17T16:52:41.924Z,1.70
2023-01-17T16:56:44.108Z,1.17
2023-01-17T17:00:46.733Z,2.17
2023-01-17T17:04:49.008Z,1.80
2023-01-17T17:08:51.226Z,1.40
2023-01-17T17:12:53.400Z,1.20
2023-01-17T17:16:56.784Z,1.57
2023-01-17T17:21:01.586Z,1.80
2023-01-17T17:25:04.238Z,1.67
2023-01-17T17:29:07.531Z,1.57
2023-01-17T17:33:10.085Z,1.83
2023-01-17T17:37:12.695Z,1.70
2023-01-17T17:41:14.847Z,1.90
2023-01-17T17:45:17.124Z,1.90
2023-01-17T17:49:19.468Z,1.60
2023-01-17T17:53:21.609Z,1.90
2023-01-17T17:57:23.763Z,2.00
2023-01-17T18:01:26.172Z,1.90
2023-01-17T18:05:28.413Z,1.30
2023-01-17T18:09:30.700Z,1.80
2023-01-17T18:13:33.634Z,2.03
2023-01-17T18:17:35.850Z,2.00
2023-01-17T18:21:38.999Z,1.77
2023-01-17T18:25:41.144Z,2.23
2023-01-17T18:29:43.342Z,2.50
2023-01-17T18:33:45.466Z,1.80
2023-01-17T18:37:47.644Z,2.00
2023-01-17T18:41:49.801Z,1.77
2023-01-17T18:45:55.037Z,2.87
2023-01-17T18:49:57.227Z,2.20
2023-01-17T18:53:59.462Z,2.17
2023-01-17T18:58:01.677Z,2.10
2023-01-17T19:02:03.850Z,2.00
2023-01-17T19:06:06.645Z,2.23
2023-01-17T19:10:09.169Z,2.53
2023-01-17T19:14:11.552Z,2.47
2023-01-17T19:18:13.715Z,2.77
2023-01-17T19:22:15.878Z,2.83
2023-01-17T19:26:18.531Z,2.50
2023-01-17T19:30:20.742Z,2.67
2023-01-17T19:34:22.946Z,2.43
2023-01-17T19:38:25.131Z,2.73
2023-01-17T19:42:27.254Z,3.03
2023-01-17T19:46:29.782Z,2.50
2023-01-17T19:50:31.969Z,3.43
2023-01-17T19:54:34.082Z,3.47
2023-01-17T19:58:36.303Z,3.50
2023-01-17T20:02:38.532Z,2.97
2023-01-17T20:06:40.835Z,3.20
2023-01-17T20:10:43.004Z,3.03
2023-01-17T20:14:45.148Z,3.77
2023-01-17T20:18:47.283Z,3.70
2023-01-17T20:22:49.508Z,3.43
2023-01-17T20:26:51.716Z,3.70
2023-01-17T20:30:54.551Z,3.80
2023-01-17T20:34:56.711Z,3.60
2023-01-17T20:38:58.832Z,3.53
2023-01-17T20:43:01.002Z,4.13
2023-01-17T20:47:03.172Z,3.97
2023-01-17T20:51:06.201Z,4.37
2023-01-17T20:55:08.627Z,3.80
2023-01-17T20:59:15.189Z,4.00
2023-01-17T21:03:17.357Z,3.90
2023-01-17T21:07:19.570Z,3.87
2023-01-17T21:11:25.959Z,14.37
2023-01-17T21:15:28.142Z,4.07
2023-01-17T21:19:30.298Z,5.37
2023-01-17T21:23:32.474Z,4.90
2023-01-17T21:27:34.629Z,4.80
2023-01-17T21:31:36.813Z,4.53
2023-01-17T21:35:39.032Z,6.30
2023-01-17T21:39:41.219Z,5.23
2023-01-17T21:43:43.430Z,5.30
2023-01-17T21:47:45.603Z,5.47
2023-01-17T21:51:47.805Z,4.63
2023-01-17T21:55:49.979Z,4.90
2023-01-17T21:59:52.097Z,4.50
2023-01-17T22:03:58.596Z,5.47
2023-01-17T22:08:00.749Z,4.90
2023-01-17T22:12:02.878Z,4.70
2023-01-17T22:16:06.311Z,4.63
2023-01-17T22:20:08.955Z,4.93
2023-01-17T22:24:11.081Z,4.70
2023-01-17T22:28:13.247Z,4.23
2023-01-17T22:32:15.437Z,5.00
2023-01-17T22:36:17.686Z,4.90
2023-01-17T22:40:19.905Z,4.90
2023-01-17T22:44:22.108Z,4.77
2023-01-17T22:48:24.297Z,4.17
2023-01-17T22:52:26.478Z,4.73
2023-01-17T22:56:32.575Z,5.97
2023-01-17T23:00:34.704Z,4.50
2023-01-17T23:04:36.842Z,4.77
2023-01-17T23:08:39.631Z,4.67
2023-01-17T23:12:41.786Z,4.77
2023-01-17T23:16:47.849Z,5.10
2023-01-17T23:20:49.971Z,5.10
2023-01-17T23:24:56.589Z,4.80
2023-01-17T23:28:58.727Z,5.33
2023-01-17T23:33:01.888Z,5.73
2023-01-17T23:37:04.057Z,5.20
2023-01-17T23:41:07.303Z,5.47
2023-01-17T23:45:09.667Z,5.57
2023-01-17T23:49:11.868Z,5.43
2023-01-17T23:53:15.495Z,5.27
2023-01-17T23:57:17.647Z,6.27
